createdAt,value
2018-08-13T00:00:04.987Z,1.40
2018-08-13T00:02:33.862Z,2.17
2018-08-13T00:05:02.882Z,1.10
2018-08-13T00:07:31.931Z,1.10
2018-08-13T00:10:04.784Z,1.40
2018-08-13T00:12:34.041Z,1.50
2018-08-13T00:15:03.082Z,1.60
2018-08-13T00:17:32.121Z,1.80
2018-08-13T00:20:01.161Z,2.17
2018-08-13T00:22:30.594Z,1.40
2018-08-13T00:24:59.629Z,1.83
2018-08-13T00:27:28.692Z,1.40
2018-08-13T00:29:57.736Z,1.33
2018-08-13T00:32:26.748Z,2.00
2018-08-13T00:34:55.786Z,1.50
2018-08-13T00:37:24.713Z,1.27
2018-08-13T00:39:53.761Z,1.33
2018-08-13T00:42:22.781Z,2.40
2018-08-13T00:44:51.889Z,1.43
2018-08-13T00:47:21.713Z,1.40
2018-08-13T00:49:50.664Z,1.10
2018-08-13T00:52:19.677Z,1.30
2018-08-13T00:54:48.683Z,2.10
2018-08-13T00:57:17.601Z,1.30
2018-08-13T00:59:47.130Z,1.87
2018-08-13T01:02:16.124Z,2.23
2018-08-13T01:04:45.098Z,2.60
2018-08-13T01:07:14.127Z,2.13
2018-08-13T01:09:43.101Z,1.80
2018-08-13T01:12:12.796Z,2.00
2018-08-13T01:14:42.153Z,2.72
2018-08-13T01:17:11.222Z,2.10
2018-08-13T01:19:40.325Z,1.50
2018-08-13T01:22:09.912Z,1.73
2018-08-13T01:24:39.001Z,1.80
2018-08-13T01:27:07.916Z,1.67
2018-08-13T01:29:36.883Z,2.60
2018-08-13T01:32:05.867Z,2.00
2018-08-13T01:34:35.824Z,2.30
2018-08-13T01:37:04.913Z,1.73
2018-08-13T01:39:33.854Z,1.90
2018-08-13T01:42:02.760Z,2.33
2018-08-13T01:44:31.750Z,2.70
2018-08-13T01:47:01.709Z,1.80
2018-08-13T01:49:30.788Z,2.20
2018-08-13T01:51:59.868Z,2.00
2018-08-13T01:54:28.851Z,1.73
2018-08-13T01:56:57.853Z,2.70
2018-08-13T01:59:26.792Z,2.07
2018-08-13T02:01:55.785Z,1.80
2018-08-13T02:04:24.722Z,2.50
2018-08-13T02:06:53.734Z,2.80
2018-08-13T02:09:26.541Z,2.53
2018-08-13T02:11:55.820Z,2.77
2018-08-13T02:14:27.338Z,1.90
2018-08-13T02:16:57.168Z,1.77
2018-08-13T02:19:26.304Z,2.10
2018-08-13T02:21:55.400Z,2.60
2018-08-13T02:24:24.534Z,2.40
2018-08-13T02:26:53.984Z,2.47
2018-08-13T02:29:23.406Z,2.23
2018-08-13T02:31:52.398Z,2.83
2018-08-13T02:34:24.344Z,1.57
2018-08-13T02:36:54.939Z,1.80
2018-08-13T02:39:24.012Z,2.23
2018-08-13T02:41:52.972Z,2.10
2018-08-13T02:44:22.085Z,1.63
2018-08-13T02:46:51.035Z,1.70
2018-08-13T02:49:20.826Z,1.90
2018-08-13T02:51:49.850Z,1.93
2018-08-13T02:54:20.502Z,1.63
2018-08-13T02:56:49.484Z,1.67
2018-08-13T02:59:18.542Z,1.55
2018-08-13T03:01:47.525Z,1.70
2018-08-13T03:04:17.233Z,1.80
2018-08-13T03:06:46.752Z,1.90
2018-08-13T03:09:15.705Z,1.60
2018-08-13T03:11:44.721Z,2.00
2018-08-13T03:14:13.683Z,2.03
2018-08-13T03:16:42.616Z,2.10
2018-08-13T03:19:11.690Z,2.92
2018-08-13T03:21:40.612Z,2.70
2018-08-13T03:24:09.662Z,2.17
2018-08-13T03:26:38.731Z,1.57
2018-08-13T03:29:07.791Z,2.60
2018-08-13T03:31:37.749Z,2.10
2018-08-13T03:34:06.870Z,2.05
2018-08-13T03:36:36.127Z,2.00
2018-08-13T03:39:09.573Z,1.67
2018-08-13T03:41:38.544Z,1.80
2018-08-13T03:44:08.120Z,1.90
2018-08-13T03:46:37.117Z,2.57
2018-08-13T03:49:06.729Z,2.57
2018-08-13T03:51:35.857Z,2.57
2018-08-13T03:54:05.128Z,2.50
2018-08-13T03:56:34.106Z,1.83
2018-08-13T03:59:03.086Z,1.57
2018-08-13T04:01:32.111Z,2.73
2018-08-13T04:04:01.098Z,1.70
2018-08-13T04:06:30.361Z,1.60
2018-08-13T04:08:59.767Z,1.33
2018-08-13T04:11:28.765Z,1.70
2018-08-13T04:13:57.709Z,1.53
2018-08-13T04:16:26.721Z,1.87
2018-08-13T04:18:56.609Z,2.40
2018-08-13T04:21:25.697Z,2.00
2018-08-13T04:23:54.790Z,2.60
2018-08-13T04:26:24.220Z,2.17
2018-08-13T04:28:53.385Z,1.90
2018-08-13T04:31:23.416Z,1.87
2018-08-13T04:33:52.718Z,1.57
2018-08-13T04:36:22.597Z,3.67
2018-08-13T04:38:52.794Z,1.87
2018-08-13T04:41:21.738Z,1.70
2018-08-13T04:43:50.707Z,2.77
2018-08-13T04:46:19.916Z,2.53
2018-08-13T04:48:48.950Z,2.27
2018-08-13T04:51:18.057Z,1.83
2018-08-13T04:53:46.997Z,1.90
2018-08-13T04:56:16.063Z,2.33
2018-08-13T04:58:45.136Z,1.90
2018-08-13T05:01:14.096Z,1.63
2018-08-13T05:03:43.149Z,1.83
2018-08-13T05:06:12.354Z,2.47
2018-08-13T05:08:41.323Z,1.80
2018-08-13T05:11:10.478Z,2.02
2018-08-13T05:13:39.451Z,1.50
2018-08-13T05:16:08.448Z,2.07
2018-08-13T05:18:37.479Z,1.70
2018-08-13T05:21:06.638Z,1.50
2018-08-13T05:23:35.705Z,1.97
2018-08-13T05:26:04.944Z,2.33
2018-08-13T05:28:33.996Z,3.17
2018-08-13T05:31:03.025Z,2.83
2018-08-13T05:33:32.153Z,2.47
2018-08-13T05:36:01.046Z,1.90
2018-08-13T05:38:30.214Z,1.97
2018-08-13T05:40:59.502Z,2.20
2018-08-13T05:43:28.388Z,2.17
2018-08-13T05:45:57.431Z,1.80
2018-08-13T05:48:26.495Z,2.10
2018-08-13T05:50:55.449Z,1.80
2018-08-13T05:53:24.441Z,2.27
2018-08-13T05:55:53.344Z,1.70
2018-08-13T05:58:22.302Z,1.90
2018-08-13T06:00:51.264Z,1.70
2018-08-13T06:03:20.261Z,1.70
2018-08-13T06:05:49.275Z,1.60
2018-08-13T06:08:18.539Z,2.27
2018-08-13T06:10:47.447Z,2.20
2018-08-13T06:13:16.423Z,1.80
2018-08-13T06:15:45.752Z,2.00
2018-08-13T06:18:15.224Z,1.80
2018-08-13T06:20:44.349Z,2.03
2018-08-13T06:23:13.436Z,1.70
2018-08-13T06:25:43.240Z,2.00
2018-08-13T06:28:12.420Z,2.50
2018-08-13T06:30:41.423Z,1.60
2018-08-13T06:33:10.414Z,2.40
2018-08-13T06:35:39.389Z,1.50
2018-08-13T06:38:08.427Z,1.80
2018-08-13T06:40:37.370Z,2.00
2018-08-13T06:43:06.472Z,3.47
2018-08-13T06:45:35.412Z,2.10
2018-08-13T06:48:04.958Z,2.10
2018-08-13T06:50:34.037Z,2.10
2018-08-13T06:53:03.114Z,1.87
2018-08-13T06:55:32.193Z,1.93
2018-08-13T06:58:01.423Z,2.00
2018-08-13T07:00:30.920Z,2.33
2018-08-13T07:03:00.065Z,3.63
2018-08-13T07:05:29.128Z,3.07
2018-08-13T07:07:58.127Z,2.20
2018-08-13T07:10:28.099Z,3.10
2018-08-13T07:12:57.107Z,2.63
2018-08-13T07:15:26.228Z,2.50
2018-08-13T07:17:56.622Z,3.20
2018-08-13T07:20:25.744Z,3.57
2018-08-13T07:22:54.785Z,2.23
2018-08-13T07:25:23.885Z,2.80
2018-08-13T07:27:53.060Z,3.27
2018-08-13T07:30:22.215Z,2.03
2018-08-13T07:32:55.089Z,2.37
2018-08-13T07:35:24.150Z,2.00
2018-08-13T07:37:53.154Z,2.30
2018-08-13T07:40:22.351Z,2.10
2018-08-13T07:42:51.327Z,2.03
2018-08-13T07:45:20.536Z,2.30
2018-08-13T07:47:49.630Z,3.27
2018-08-13T07:50:18.794Z,2.30
2018-08-13T07:52:47.788Z,2.40
2018-08-13T07:55:16.833Z,2.70
2018-08-13T07:57:45.749Z,2.10
2018-08-13T08:00:16.719Z,2.90
2018-08-13T08:02:46.120Z,2.70
2018-08-13T08:05:15.404Z,2.40
2018-08-13T08:07:44.376Z,2.13
2018-08-13T08:10:14.783Z,2.10
2018-08-13T08:12:44.690Z,3.13
2018-08-13T08:15:15.901Z,2.70
2018-08-13T08:17:45.059Z,2.30
2018-08-13T08:20:14.084Z,4.20
2018-08-13T08:22:43.341Z,3.10
2018-08-13T08:25:18.303Z,2.90
2018-08-13T08:27:47.261Z,2.53
2018-08-13T08:30:16.221Z,3.83
2018-08-13T08:32:45.193Z,3.20
2018-08-13T08:35:16.279Z,2.90
2018-08-13T08:37:45.190Z,2.87
2018-08-13T08:40:16.641Z,2.80
2018-08-13T08:42:45.646Z,2.97
2018-08-13T08:45:18.790Z,3.23
2018-08-13T08:47:47.954Z,3.63
2018-08-13T08:50:16.910Z,2.40
2018-08-13T08:52:46.685Z,2.43
2018-08-13T08:55:16.502Z,3.63
2018-08-13T08:57:45.785Z,4.40
2018-08-13T09:00:17.102Z,3.10
2018-08-13T09:02:46.241Z,2.20
2018-08-13T09:05:15.833Z,3.33
2018-08-13T09:07:45.759Z,3.50
2018-08-13T09:10:14.857Z,2.63
2018-08-13T09:12:43.992Z,2.40
2018-08-13T09:15:14.741Z,3.10
2018-08-13T09:17:55.879Z,2.67
2018-08-13T09:20:36.252Z,3.00
2018-08-13T09:23:16.509Z,3.47
2018-08-13T09:25:56.814Z,3.20
2018-08-13T09:28:37.046Z,3.17
2018-08-13T09:31:20.933Z,3.55
2018-08-13T09:34:01.657Z,2.83
2018-08-13T09:36:30.651Z,2.77
2018-08-13T09:38:59.712Z,3.93
2018-08-13T09:41:28.753Z,2.97
2018-08-13T09:43:57.754Z,3.00
2018-08-13T09:46:26.814Z,2.83
2018-08-13T09:48:55.775Z,2.70
2018-08-13T09:51:24.842Z,3.90
2018-08-13T09:53:54.045Z,2.50
2018-08-13T09:56:23.349Z,2.57
2018-08-13T09:58:52.464Z,4.40
2018-08-13T10:01:21.547Z,3.17
2018-08-13T10:03:50.514Z,3.63
2018-08-13T10:06:19.604Z,3.20
2018-08-13T10:08:48.510Z,3.30
2018-08-13T10:11:17.483Z,2.87
2018-08-13T10:13:46.378Z,3.93
2018-08-13T10:16:15.317Z,2.90
2018-08-13T10:18:44.357Z,3.37
2018-08-13T10:21:13.416Z,2.20
2018-08-13T10:23:42.396Z,2.83
2018-08-13T10:26:12.526Z,3.13
2018-08-13T10:28:41.629Z,2.63
2018-08-13T10:31:10.619Z,2.50
2018-08-13T10:33:40.163Z,2.80
2018-08-13T10:36:09.450Z,2.70
2018-08-13T10:38:38.384Z,2.00
2018-08-13T10:41:07.479Z,2.37
2018-08-13T10:43:36.956Z,2.90
2018-08-13T10:46:06.000Z,2.40
2018-08-13T10:48:35.110Z,2.93
2018-08-13T10:51:04.976Z,3.07
2018-08-13T10:53:34.049Z,3.00
2018-08-13T10:56:06.038Z,4.50
2018-08-13T10:58:35.042Z,3.23
2018-08-13T11:01:04.026Z,3.53
2018-08-13T11:03:33.098Z,2.37
2018-08-13T11:06:02.529Z,2.93
2018-08-13T11:08:31.668Z,2.77
2018-08-13T11:11:00.699Z,3.03
2018-08-13T11:13:29.843Z,3.10
2018-08-13T11:15:59.162Z,2.53
2018-08-13T11:18:28.151Z,2.43
2018-08-13T11:20:57.209Z,2.90
2018-08-13T11:23:26.125Z,1.70
2018-08-13T11:25:55.093Z,2.57
2018-08-13T11:28:24.213Z,2.87
2018-08-13T11:30:53.189Z,3.93
2018-08-13T11:33:22.212Z,2.70
2018-08-13T11:35:51.152Z,2.57
2018-08-13T11:38:20.084Z,4.37
2018-08-13T11:40:49.025Z,2.10
2018-08-13T11:43:18.096Z,2.50
2018-08-13T11:45:47.317Z,3.20
2018-08-13T11:48:16.296Z,2.77
2018-08-13T11:50:45.301Z,2.73
2018-08-13T11:53:14.441Z,1.77
2018-08-13T11:55:43.463Z,3.57
2018-08-13T11:58:13.476Z,2.23
2018-08-13T12:00:42.439Z,1.93
2018-08-13T12:03:11.474Z,2.00
2018-08-13T12:05:40.484Z,1.80
2018-08-13T12:08:09.577Z,1.90
2018-08-13T12:10:38.650Z,1.50
2018-08-13T12:13:07.643Z,1.77
2018-08-13T12:15:36.940Z,1.50
2018-08-13T12:18:06.552Z,1.70
2018-08-13T12:20:35.674Z,1.57
2018-08-13T12:23:04.889Z,1.60
2018-08-13T12:25:33.909Z,1.40
2018-08-13T12:28:02.961Z,1.40
2018-08-13T12:30:32.236Z,1.17
2018-08-13T12:33:01.262Z,1.50
2018-08-13T12:35:30.363Z,1.10
2018-08-13T12:37:59.434Z,2.07
2018-08-13T12:40:28.513Z,1.43
2018-08-13T12:42:57.462Z,1.10
2018-08-13T12:45:26.447Z,1.10
2018-08-13T12:47:55.417Z,1.13
2018-08-13T12:50:24.520Z,1.10
2018-08-13T12:52:53.611Z,1.20
2018-08-13T12:55:22.612Z,1.60
2018-08-13T12:57:51.742Z,1.50
2018-08-13T13:00:20.738Z,1.13
2018-08-13T13:02:49.813Z,1.23
2018-08-13T13:05:19.344Z,1.30
2018-08-13T13:07:48.324Z,0.90
2018-08-13T13:10:18.004Z,1.50
2018-08-13T13:12:47.069Z,1.20
2018-08-13T13:15:18.633Z,1.30
2018-08-13T13:17:47.771Z,1.20
2018-08-13T13:20:18.874Z,0.90
2018-08-13T13:22:48.274Z,0.90
2018-08-13T13:25:17.616Z,0.93
2018-08-13T13:27:46.520Z,1.00
2018-08-13T13:30:16.546Z,1.00
2018-08-13T13:32:45.846Z,1.13
2018-08-13T13:35:16.038Z,0.80
2018-08-13T13:37:45.064Z,1.10
2018-08-13T13:40:15.275Z,0.97
2018-08-13T13:42:44.274Z,0.90
2018-08-13T13:45:14.363Z,0.77
2018-08-13T13:47:43.316Z,1.10
2018-08-13T13:50:14.448Z,0.90
2018-08-13T13:52:43.679Z,1.10
2018-08-13T13:55:12.852Z,0.67
2018-08-13T13:57:41.825Z,1.30
2018-08-13T14:00:16.845Z,0.90
2018-08-13T14:02:47.019Z,1.10
2018-08-13T14:05:16.213Z,1.00
2018-08-13T14:07:45.244Z,0.70
2018-08-13T14:10:19.382Z,1.77
2018-08-13T14:12:48.286Z,1.07
2018-08-13T14:15:18.573Z,1.33
2018-08-13T14:17:47.700Z,1.23
2018-08-13T14:20:16.882Z,2.60
2018-08-13T14:22:45.770Z,1.10
2018-08-13T14:25:15.144Z,1.40
2018-08-13T14:27:44.187Z,2.30
2018-08-13T14:30:16.957Z,1.30
2018-08-13T14:32:46.336Z,1.70
2018-08-13T14:35:15.443Z,2.03
2018-08-13T14:37:44.457Z,1.97
2018-08-13T14:40:13.743Z,2.50
2018-08-13T14:42:43.491Z,2.37
2018-08-13T14:45:13.969Z,2.00
2018-08-13T14:47:44.120Z,2.23
2018-08-13T14:50:13.569Z,1.97
2018-08-13T14:52:44.600Z,1.93
2018-08-13T14:55:14.837Z,2.30
2018-08-13T14:57:44.446Z,2.57
2018-08-13T15:00:22.660Z,2.03
2018-08-13T15:02:51.965Z,2.30
2018-08-13T15:05:21.057Z,3.57
2018-08-13T15:07:49.957Z,2.60
2018-08-13T15:10:23.117Z,2.10
2018-08-13T15:12:52.355Z,2.17
2018-08-13T15:15:21.336Z,2.47
2018-08-13T15:17:51.088Z,2.20
2018-08-13T15:20:26.049Z,1.97
2018-08-13T15:22:55.391Z,2.30
2018-08-13T15:25:24.573Z,2.27
2018-08-13T15:27:53.617Z,2.53
2018-08-13T15:30:43.187Z,2.93
2018-08-13T15:33:12.140Z,2.40
2018-08-13T15:35:41.097Z,2.70
2018-08-13T15:38:10.137Z,2.80
2018-08-13T15:40:40.967Z,2.43
2018-08-13T15:43:16.964Z,2.17
2018-08-13T15:45:46.088Z,3.90
2018-08-13T15:48:15.076Z,2.70
2018-08-13T15:50:44.428Z,3.50
2018-08-13T15:53:13.270Z,2.40
2018-08-13T15:55:42.265Z,2.77
2018-08-13T15:58:11.366Z,2.80
2018-08-13T16:00:40.281Z,2.97
2018-08-13T16:03:09.358Z,3.47
2018-08-13T16:05:38.536Z,2.93
2018-08-13T16:08:07.759Z,3.23
2018-08-13T16:10:36.764Z,2.97
2018-08-13T16:13:05.945Z,3.10
2018-08-13T16:15:35.153Z,3.77
2018-08-13T16:18:04.713Z,4.33
2018-08-13T16:20:33.703Z,3.47
2018-08-13T16:23:02.589Z,3.30
2018-08-13T16:25:31.517Z,3.23
2018-08-13T16:28:00.488Z,4.13
2018-08-13T16:30:30.743Z,3.57
2018-08-13T16:32:59.847Z,3.62
2018-08-13T16:35:28.820Z,3.40
2018-08-13T16:37:57.827Z,3.47
2018-08-13T16:40:26.846Z,3.80
2018-08-13T16:42:55.799Z,3.93
2018-08-13T16:45:24.812Z,3.47
2018-08-13T16:47:53.751Z,3.60
2018-08-13T16:50:30.246Z,3.60
2018-08-13T16:52:59.984Z,3.37
2018-08-13T16:55:30.125Z,4.50
2018-08-13T16:57:59.723Z,3.00
2018-08-13T17:00:30.051Z,3.40
2018-08-13T17:02:59.534Z,2.93
2018-08-13T17:05:29.559Z,2.70
2018-08-13T17:07:59.269Z,2.67
2018-08-13T17:10:29.370Z,3.50
2018-08-13T17:12:58.910Z,2.30
2018-08-13T17:15:29.849Z,2.90
2018-08-13T17:18:00.211Z,3.20
2018-08-13T17:20:30.578Z,2.40
2018-08-13T17:22:59.591Z,3.23
2018-08-13T17:25:28.714Z,2.77
2018-08-13T17:27:57.800Z,2.57
2018-08-13T17:30:27.391Z,2.70
2018-08-13T17:32:58.016Z,2.13
2018-08-13T17:35:31.625Z,2.30
2018-08-13T17:38:01.937Z,2.13
2018-08-13T17:40:31.347Z,2.20
2018-08-13T17:43:00.624Z,2.67
2018-08-13T17:45:29.375Z,2.43
2018-08-13T17:47:58.446Z,2.40
2018-08-13T17:50:28.628Z,1.83
2018-08-13T17:52:57.707Z,2.37
2018-08-13T17:55:26.858Z,2.10
2018-08-13T17:57:57.194Z,2.07
2018-08-13T18:00:28.081Z,1.90
2018-08-13T18:02:57.755Z,2.30
2018-08-13T18:05:27.604Z,1.90
2018-08-13T18:07:57.348Z,1.70
2018-08-13T18:10:28.509Z,1.80
2018-08-13T18:12:58.803Z,2.43
2018-08-13T18:15:28.443Z,2.50
2018-08-13T18:17:57.558Z,1.70
2018-08-13T18:20:26.580Z,2.60
2018-08-13T18:22:55.860Z,1.67
2018-08-13T18:25:24.879Z,1.83
2018-08-13T18:27:55.160Z,1.90
2018-08-13T18:30:54.641Z,1.95
2018-08-13T18:33:23.758Z,1.60
2018-08-13T18:35:53.005Z,1.77
2018-08-13T18:38:22.291Z,2.17
2018-08-13T18:40:51.348Z,2.23
2018-08-13T18:43:20.943Z,1.47
2018-08-13T18:45:49.881Z,1.73
2018-08-13T18:48:19.221Z,1.60
2018-08-13T18:50:48.260Z,1.70
2018-08-13T18:53:17.441Z,1.37
2018-08-13T18:55:46.626Z,1.50
2018-08-13T18:58:15.773Z,1.77
2018-08-13T19:00:51.582Z,1.83
2018-08-13T19:03:21.202Z,1.95
2018-08-13T19:05:51.373Z,1.53
2018-08-13T19:08:20.540Z,1.65
2018-08-13T19:10:49.595Z,1.50
2018-08-13T19:13:18.730Z,1.53
2018-08-13T19:15:48.628Z,1.60
2018-08-13T19:18:18.193Z,1.60
2018-08-13T19:20:47.254Z,8.33
2018-08-13T19:23:16.672Z,4.90
2018-08-13T19:25:45.961Z,3.80
2018-08-13T19:28:15.376Z,3.87
2018-08-13T19:30:45.255Z,3.47
2018-08-13T19:33:14.384Z,3.57
2018-08-13T19:35:43.745Z,3.10
2018-08-13T19:38:12.974Z,3.23
2018-08-13T19:40:41.950Z,2.83
2018-08-13T19:43:11.135Z,3.22
2018-08-13T19:45:40.176Z,3.77
2018-08-13T19:48:09.900Z,3.23
2018-08-13T19:50:39.228Z,2.87
2018-08-13T19:53:08.391Z,3.10
2018-08-13T19:55:39.993Z,2.50
2018-08-13T19:58:10.505Z,2.57
2018-08-13T20:00:43.909Z,2.90
2018-08-13T20:03:14.455Z,2.47
2018-08-13T20:05:43.755Z,2.40
2018-08-13T20:08:12.882Z,3.30
2018-08-13T20:10:41.975Z,2.43
2018-08-13T20:13:11.383Z,2.30
2018-08-13T20:15:40.607Z,2.50
2018-08-13T20:18:10.656Z,2.40
2018-08-13T20:20:40.242Z,2.40
2018-08-13T20:23:09.678Z,2.40
2018-08-13T20:25:38.848Z,2.53
2018-08-13T20:28:08.044Z,2.57
2018-08-13T20:30:37.089Z,2.70
2018-08-13T20:33:06.407Z,2.80
2018-08-13T20:35:35.477Z,4.13
2018-08-13T20:38:04.685Z,2.93
2018-08-13T20:40:33.959Z,2.53
2018-08-13T20:43:03.258Z,2.93
2018-08-13T20:45:32.758Z,2.10
2018-08-13T20:48:03.066Z,2.50
2018-08-13T20:50:33.113Z,2.87
2018-08-13T20:53:02.517Z,2.50
2018-08-13T20:55:31.760Z,3.30
2018-08-13T20:58:01.129Z,2.47
2018-08-13T21:00:31.346Z,4.47
2018-08-13T21:03:00.504Z,2.70
2018-08-13T21:05:30.010Z,2.60
2018-08-13T21:07:59.675Z,3.10
2018-08-13T21:10:28.794Z,2.80
2018-08-13T21:12:58.278Z,2.63
2018-08-13T21:15:27.725Z,3.13
2018-08-13T21:17:56.692Z,3.00
2018-08-13T21:20:28.193Z,2.90
2018-08-13T21:22:58.132Z,2.93
2018-08-13T21:25:27.257Z,2.90
2018-08-13T21:27:56.376Z,3.10
2018-08-13T21:30:25.479Z,2.80
2018-08-13T21:32:54.616Z,2.77
2018-08-13T21:35:25.194Z,4.10
2018-08-13T21:37:54.524Z,4.13
2018-08-13T21:40:23.724Z,3.40
2018-08-13T21:42:53.420Z,2.60
2018-08-13T21:45:23.152Z,2.50
2018-08-13T21:47:52.470Z,3.33
2018-08-13T21:50:23.310Z,2.90
2018-08-13T21:52:52.910Z,2.90
2018-08-13T21:55:22.269Z,4.63
2018-08-13T21:57:51.195Z,4.10
2018-08-13T22:00:26.443Z,2.90
2018-08-13T22:02:56.490Z,4.13
2018-08-13T22:05:25.533Z,2.77
2018-08-13T22:07:54.470Z,3.33
2018-08-13T22:10:23.556Z,4.50
2018-08-13T22:12:52.840Z,3.53
2018-08-13T22:15:25.198Z,3.17
2018-08-13T22:17:55.499Z,4.23
2018-08-13T22:20:24.815Z,3.10
2018-08-13T22:22:53.905Z,3.90
2018-08-13T22:25:24.783Z,5.47
2018-08-13T22:27:53.791Z,4.00
2018-08-13T22:30:22.784Z,3.33
2018-08-13T22:32:51.769Z,3.70
2018-08-13T22:35:20.666Z,3.55
2018-08-13T22:37:50.051Z,3.90
2018-08-13T22:40:20.198Z,3.40
2018-08-13T22:42:49.217Z,3.50
2018-08-13T22:45:20.216Z,4.83
2018-08-13T22:47:49.199Z,3.47
2018-08-13T22:50:18.107Z,3.73
2018-08-13T22:52:47.658Z,3.63
2018-08-13T22:55:17.764Z,5.37
2018-08-13T22:57:46.833Z,4.60
2018-08-13T23:00:20.017Z,5.20
2018-08-13T23:02:49.812Z,4.73
2018-08-13T23:05:24.287Z,4.10
2018-08-13T23:07:53.233Z,4.47
2018-08-13T23:10:23.487Z,4.10
2018-08-13T23:12:53.446Z,5.70
2018-08-13T23:15:22.478Z,5.63
2018-08-13T23:17:51.991Z,7.00
2018-08-13T23:20:25.007Z,4.77
2018-08-13T23:22:56.100Z,5.47
2018-08-13T23:25:25.365Z,4.50
2018-08-13T23:27:55.555Z,4.37
2018-08-13T23:30:24.640Z,4.70
2018-08-13T23:32:54.390Z,4.60
2018-08-13T23:35:24.022Z,4.93
2018-08-13T23:37:53.332Z,4.60
2018-08-13T23:40:22.453Z,4.50
2018-08-13T23:42:51.497Z,9.50
2018-08-13T23:45:22.698Z,4.17
2018-08-13T23:47:51.655Z,6.43
2018-08-13T23:50:22.212Z,6.67
2018-08-13T23:52:52.301Z,4.33
2018-08-13T23:55:27.573Z,7.50
2018-08-13T23:57:56.774Z,5.83
